CheckWX is a tool to help pilots better visualize weather data.  It is not intended as a substitute for an official pre-flight weather briefing.

08:21:34 UTC

KFCH METAR
Fresno Chandler Executive Airport
Fresno, California, USA
Current

27 mins ago

KFCH 240755Z AUTO 00000KT 10SM CLR 10/08 A3035 RMK A01
Observed
Feb-24 @ 07:55 UTC
Visibility
10 SM
Flight Rules
VFR
Cloud Levels
  • Clear skies
Temperature
10°C / 50°F
Dewpoint
C / 46°F
Humidity
88%
Altimeter
30.35" Hg
Pressure
1027.82 hPa
Previous

47 mins ago

KFCH 240735Z AUTO 30006KT 10SM CLR 10/08 A3035 RMK A01
Observed
Feb-24 @ 07:35 UTC
Wind
  • 300° at 6 KTS
Visibility
10 SM
Flight Rules
VFR
Cloud Levels
  • Clear skies
Temperature
10°C / 50°F
Dewpoint
C / 46°F
Humidity
88%
Altimeter
30.35" Hg
Pressure
1027.82 hPa
Previous

1 hour ago

KFCH 240715Z AUTO 28005KT 10SM CLR 10/08 A3035 RMK A01
Observed
Feb-24 @ 07:15 UTC
Wind
  • 280° at 5 KTS
Visibility
10 SM
Flight Rules
VFR
Cloud Levels
  • Clear skies
Temperature
10°C / 50°F
Dewpoint
C / 46°F
Humidity
88%
Altimeter
30.35" Hg
Pressure
1027.82 hPa